Time;durP1;ratioP1;P1;durP2;ratioP2;P2;SDS_P1;SDS_P2;PMS_P1;PMS_P2;Temp;Humidity;BMP_temperature;BMP_pressure;BME280_temperature;BME280_humidity;BME280_pressure;Samples;Min_cycle;Max_cycle;Signal;HPM_P1;HPM_P2
2022/08/05 00:00:00;;;;;;;9.27;5.28;;;;;;;21.14;90.29;100581.59;5012974;28;20088;-78
2022/08/05 00:02:26;;;;;;;7.28;5.35;;;;;;;21.10;91.00;100585.75;5015293;28;20649;-78
2022/08/05 00:04:53;;;;;;;10.80;6.35;;;;;;;21.06;91.33;100579.25;5013441;28;20081;-77
2022/08/05 00:07:20;;;;;;;9.43;6.15;;;;;;;21.03;92.31;100569.88;5012310;28;20103;-77
2022/08/05 00:09:46;;;;;;;9.13;5.60;;;;;;;20.98;91.29;100582.22;5011911;28;20603;-78
2022/08/05 00:12:13;;;;;;;8.63;5.70;;;;;;;20.90;92.47;100591.34;5012526;28;20132;-78
2022/08/05 00:14:40;;;;;;;9.98;5.85;;;;;;;20.91;92.93;100586.81;5012794;28;20447;-77
2022/08/05 00:17:08;;;;;;;7.57;6.00;;;;;;;20.79;93.13;100584.94;5012588;28;20147;-77
2022/08/05 00:19:35;;;;;;;12.85;5.95;;;;;;;20.71;93.49;100579.94;5013058;28;20397;-77
2022/08/05 00:22:02;;;;;;;11.52;6.20;;;;;;;20.54;94.04;100578.91;5017360;28;20100;-78
2022/08/05 00:24:28;;;;;;;9.23;6.10;;;;;;;20.51;93.31;100592.63;5018287;28;20045;-76
2022/08/05 00:26:55;;;;;;;8.88;5.65;;;;;;;20.41;93.34;100579.84;5014108;28;20084;-76
2022/08/05 00:29:22;;;;;;;9.98;6.15;;;;;;;20.40;93.33;100574.75;5012967;28;20053;-78
2022/08/05 00:31:49;;;;;;;10.98;6.30;;;;;;;20.27;93.24;100573.06;5013598;28;20401;-78
2022/08/05 00:34:17;;;;;;;11.00;6.90;;;;;;;20.16;93.89;100556.00;5014150;28;20155;-78
2022/08/05 00:36:45;;;;;;;8.50;6.47;;;;;;;20.11;94.40;100545.22;5014487;28;20042;-78
2022/08/05 00:39:11;;;;;;;12.80;7.00;;;;;;;19.97;94.77;100522.47;5014198;28;20049;-78
2022/08/05 00:41:54;;;;;;;10.90;6.38;;;;;;;20.00;95.33;100540.63;5015031;28;20629;-80
2022/08/05 00:44:24;;;;;;;10.77;6.80;;;;;;;20.00;95.38;100535.31;4997329;28;20047;-79
2022/08/05 00:46:51;;;;;;;11.50;6.72;;;;;;;19.83;96.05;100516.50;4998811;28;20456;-78
2022/08/05 00:49:19;;;;;;;10.57;7.32;;;;;;;19.84;96.48;100534.06;5001132;28;20092;-79
2022/08/05 00:51:46;;;;;;;13.38;7.28;;;;;;;19.83;97.02;100536.94;5018924;28;20054;-79
2022/08/05 00:54:12;;;;;;;10.73;6.80;;;;;;;19.76;97.43;100550.25;5019712;28;20077;-79
2022/08/05 00:56:39;;;;;;;9.68;7.80;;;;;;;19.75;97.43;100540.69;5019445;28;20045;-79
2022/08/05 00:59:06;;;;;;;16.45;7.60;;;;;;;19.63;97.42;100563.66;5015835;28;20133;-77
2022/08/05 01:01:33;;;;;;;11.55;7.72;;;;;;;19.43;98.15;100553.16;5017203;28;20046;-78
2022/08/05 01:04:00;;;;;;;12.38;7.22;;;;;;;19.45;98.62;100574.97;5018428;28;20056;-78
2022/08/05 01:06:28;;;;;;;12.45;7.70;;;;;;;19.49;98.55;100591.28;5019441;28;20049;-79
2022/08/05 01:08:54;;;;;;;11.75;7.43;;;;;;;19.46;98.17;100591.72;5018567;28;20081;-79
2022/08/05 01:11:24;;;;;;;9.80;7.18;;;;;;;19.37;98.58;100590.38;5018845;28;20504;-78
2022/08/05 01:14:02;;;;;;;9.77;7.40;;;;;;;19.33;98.90;100595.28;5018786;28;20088;-78
2022/08/05 01:16:33;;;;;;;12.20;8.43;;;;;;;19.34;98.93;100583.66;5019629;28;20096;-80
2022/08/05 01:19:12;;;;;;;10.13;7.47;;;;;;;19.27;98.81;100580.22;5003028;28;20050;-82
2022/08/05 01:22:06;;;;;;;10.55;8.45;;;;;;;19.11;98.52;100580.72;5020649;28;20117;-80
2022/08/05 01:24:50;;;;;;;11.32;7.90;;;;;;;19.08;99.39;100578.47;5021298;28;20085;-79
2022/08/05 01:27:31;;;;;;;15.57;8.50;;;;;;;19.08;99.74;100578.47;5017431;28;20046;-79
2022/08/05 01:30:03;;;;;;;10.30;7.93;;;;;;;19.04;99.78;100575.44;5017413;28;20077;-78
2022/08/05 01:32:33;;;;;;;14.35;8.50;;;;;;;19.07;100.00;100580.31;5018923;28;20042;-79
2022/08/05 01:35:05;;;;;;;13.85;8.35;;;;;;;19.16;99.53;100594.16;5021481;28;20054;-80
2022/08/05 01:37:37;;;;;;;14.20;8.20;;;;;;;19.12;99.61;100612.34;5023531;28;20042;-80
2022/08/05 01:40:07;;;;;;;13.38;7.70;;;;;;;19.10;99.63;100616.22;5024535;28;20064;-82
2022/08/05 01:42:45;;;;;;;11.43;8.00;;;;;;;19.07;99.54;100616.63;5026026;28;20049;-80
2022/08/05 01:45:16;;;;;;;12.68;8.05;;;;;;;19.13;99.98;100621.09;5025633;28;20145;-81
2022/08/05 01:47:45;;;;;;;13.23;7.85;;;;;;;19.20;100.00;100627.19;5020807;28;20080;-78
2022/08/05 01:50:17;;;;;;;13.32;8.25;;;;;;;19.21;99.72;100626.16;5019011;28;20050;-77
2022/08/05 01:52:47;;;;;;;13.52;9.35;;;;;;;19.26;99.66;100641.44;5019597;28;20073;-78
2022/08/05 01:55:16;;;;;;;13.70;9.07;;;;;;;19.17;99.75;100633.72;5019034;28;20141;-79
2022/08/05 01:57:46;;;;;;;14.98;9.77;;;;;;;19.11;99.94;100645.19;5019927;28;20050;-80
2022/08/05 02:00:15;;;;;;;14.10;10.15;;;;;;;19.10;100.00;100653.34;5022148;28;20077;-82
2022/08/05 02:02:46;;;;;;;14.85;10.68;;;;;;;19.11;100.00;100660.28;5017979;28;20056;-79
2022/08/05 02:05:15;;;;;;;15.18;10.73;;;;;;;19.03;100.00;100665.81;5017128;28;20077;-81
2022/08/05 02:07:43;;;;;;;16.33;11.02;;;;;;;19.00;100.00;100667.06;5019482;28;20085;-81
2022/08/05 02:10:11;;;;;;;14.27;11.40;;;;;;;18.88;100.00;100666.09;5021136;28;20066;-81
2022/08/05 02:12:44;;;;;;;16.55;11.57;;;;;;;18.93;100.00;100666.25;5020842;28;20426;-81
2022/08/05 02:15:17;;;;;;;18.48;11.32;;;;;;;18.98;100.00;100663.78;5021127;28;20132;-80
2022/08/05 02:17:50;;;;;;;16.20;11.82;;;;;;;18.97;100.00;100695.81;5018870;28;20074;-79
2022/08/05 02:20:21;;;;;;;12.95;10.90;;;;;;;18.89;100.00;100702.19;5020834;28;20085;-79
2022/08/05 02:22:55;;;;;;;16.70;10.88;;;;;;;18.82;100.00;100709.34;5016573;28;20056;-80
2022/08/05 02:25:26;;;;;;;15.18;11.57;;;;;;;18.79;100.00;100702.63;5017624;28;20137;-79
2022/08/05 02:27:56;;;;;;;15.85;12.02;;;;;;;18.86;100.00;100710.56;5018524;28;20132;-81
2022/08/05 02:30:47;;;;;;;;;;;;;;;;;;;;;
2022/08/05 02:33:21;;;;;;;16.25;12.35;;;;;;;18.81;100.00;100735.06;5016268;28;20618;-79
2022/08/05 02:35:57;;;;;;;18.20;13.07;;;;;;;18.61;100.00;100720.19;5015182;28;20061;-79
2022/08/05 02:38:28;;;;;;;14.88;12.70;;;;;;;18.75;100.00;100762.38;5014366;28;20061;-80
2022/08/05 02:41:02;;;;;;;16.58;12.63;;;;;;;18.78;100.00;100806.22;5018226;28;20049;-79
2022/08/05 02:43:37;;;;;;;18.67;13.77;;;;;;;18.65;100.00;100783.19;5018291;28;20140;-79
2022/08/05 02:46:31;;;;;;;22.42;13.85;;;;;;;18.65;100.00;100777.06;5018635;28;20140;-79
2022/08/05 02:49:21;;;;;;;16.60;13.48;;;;;;;18.57;100.00;100770.09;5020015;28;20050;-79
2022/08/05 02:52:04;;;;;;;18.27;14.52;;;;;;;18.53;100.00;100743.19;5020556;28;20058;-81
2022/08/05 02:54:33;;;;;;;19.98;14.73;;;;;;;18.33;100.00;100611.78;5019602;28;20054;-81
2022/08/05 02:57:00;;;;;;;24.63;14.63;;;;;;;18.23;100.00;100553.94;5018269;28;20061;-82
2022/08/05 02:59:29;;;;;;;26.42;14.90;;;;;;;18.12;100.00;100536.03;5018577;28;20074;-79
2022/08/05 03:01:59;;;;;;;22.35;16.10;;;;;;;17.76;100.00;100518.00;5018028;28;20674;-80
2022/08/05 03:04:27;;;;;;;24.80;17.83;;;;;;;17.81;100.00;100545.47;5022180;28;20060;-80
2022/08/05 03:06:54;;;;;;;23.45;18.35;;;;;;;17.68;100.00;100547.31;5025287;28;20050;-79
2022/08/05 03:09:21;;;;;;;24.08;18.75;;;;;;;17.84;100.00;100594.53;5027257;28;20046;-82
2022/08/05 03:11:47;;;;;;;25.48;19.58;;;;;;;17.91;100.00;100640.34;5019788;28;20053;-81
2022/08/05 03:14:14;;;;;;;23.50;20.20;;;;;;;18.06;100.00;100690.44;5020539;28;20188;-81
2022/08/05 03:16:41;;;;;;;29.20;21.60;;;;;;;18.19;100.00;100725.69;5019893;28;20073;-80
2022/08/05 03:19:09;;;;;;;26.88;19.70;;;;;;;18.39;100.00;100727.53;5019889;28;20141;-81
2022/08/05 03:21:36;;;;;;;25.55;18.42;;;;;;;18.48;100.00;100718.34;5019915;28;20104;-79
2022/08/05 03:24:03;;;;;;;30.90;19.80;;;;;;;18.51;100.00;100712.63;5020802;28;20061;-81
2022/08/05 03:26:30;;;;;;;27.77;19.40;;;;;;;18.55;100.00;100708.53;5019591;28;20077;-79
2022/08/05 03:28:57;;;;;;;26.42;19.33;;;;;;;18.62;100.00;100703.28;5025812;28;20484;-81
2022/08/05 03:31:31;;;;;;;22.40;17.67;;;;;;;18.71;100.00;100707.34;5027304;28;20053;-82
2022/08/05 03:33:58;;;;;;;23.00;18.90;;;;;;;18.74;100.00;100723.63;5027056;28;20511;-82
2022/08/05 03:36:27;;;;;;;24.60;20.65;;;;;;;18.78;100.00;100703.66;5026681;28;20046;-82
2022/08/05 03:39:07;;;;;;;27.33;21.95;;;;;;;18.77;100.00;100691.41;5026987;28;20052;-82
2022/08/05 03:41:56;;;;;;;28.27;24.80;;;;;;;18.79;100.00;100688.56;5026897;28;20060;-82
2022/08/05 03:44:42;;;;;;;29.13;25.63;;;;;;;18.80;100.00;100685.69;5031401;28;20038;-82
2022/08/05 03:50:10;;;;;;;35.85;28.90;;;;;;;18.84;100.00;100686.91;5016744;28;20098;-82
2022/08/05 03:52:57;;;;;;;33.00;29.52;;;;;;;18.83;100.00;100679.97;5027199;28;20081;-81
2022/08/05 03:55:33;;;;;;;33.83;30.13;;;;;;;18.87;100.00;100686.50;5027247;28;20196;-82
2022/08/05 03:58:02;;;;;;;37.00;30.98;;;;;;;18.94;100.00;100667.88;5025811;28;20112;-81
2022/08/05 04:00:31;;;;;;;34.10;29.75;;;;;;;18.84;100.00;100649.81;5024991;28;20530;-81
2022/08/05 04:03:01;;;;;;;32.85;29.45;;;;;;;18.82;100.00;100646.53;5024989;28;20050;-79
2022/08/05 04:05:32;;;;;;;35.25;30.75;;;;;;;18.86;100.00;100647.75;5024595;28;20054;-81
2022/08/05 04:08:01;;;;;;;34.83;30.95;;;;;;;18.86;100.00;100646.94;5024337;28;20500;-81
2022/08/05 04:10:28;;;;;;;37.05;30.30;;;;;;;18.85;100.00;100646.13;5023860;28;20050;-82
2022/08/05 04:12:56;;;;;;;34.47;30.77;;;;;;;18.81;100.00;100636.97;5023267;28;20109;-81
2022/08/05 04:15:23;;;;;;;35.83;31.85;;;;;;;18.77;100.00;100619.84;5022510;28;20084;-80
2022/08/05 04:17:49;;;;;;;37.53;33.28;;;;;;;18.65;100.00;100605.59;5016374;28;20049;-81
2022/08/05 04:20:20;;;;;;;39.70;33.80;;;;;;;18.66;100.00;100587.88;5007422;28;20050;-80
2022/08/05 04:22:47;;;;;;;32.78;29.35;;;;;;;18.59;100.00;100587.84;5018141;28;20061;-80
2022/08/05 04:25:16;;;;;;;33.58;30.08;;;;;;;18.58;100.00;100586.22;5023141;28;20086;-81
2022/08/05 04:27:42;;;;;;;32.70;29.38;;;;;;;18.65;100.00;100608.25;5023491;28;20046;-80
2022/08/05 04:30:10;;;;;;;32.67;29.13;;;;;;;18.68;100.00;100631.69;5022097;28;20112;-81
2022/08/05 04:32:37;;;;;;;32.22;28.98;;;;;;;18.69;100.00;100640.47;5023258;28;20056;-81
2022/08/05 04:35:04;;;;;;;33.20;29.30;;;;;;;18.81;100.00;100621.06;5025449;28;20500;-81
2022/08/05 04:37:31;;;;;;;35.45;31.17;;;;;;;18.93;100.00;100637.09;5023719;28;20046;-80
2022/08/05 04:39:58;;;;;;;34.13;30.20;;;;;;;18.97;100.00;100664.81;5022738;28;20106;-81
2022/08/05 04:42:26;;;;;;;29.48;26.30;;;;;;;18.99;100.00;100669.91;5022790;28;20543;-81
2022/08/05 04:44:53;;;;;;;29.20;26.08;;;;;;;18.86;100.00;100668.97;5022936;28;20050;-81
2022/08/05 04:47:19;;;;;;;29.70;26.20;;;;;;;19.01;100.00;100675.81;5022578;28;20080;-81
2022/08/05 04:49:46;;;;;;;32.28;27.92;;;;;;;18.93;100.00;100682.16;5021981;28;20046;-79
2022/08/05 04:52:13;;;;;;;30.92;25.92;;;;;;;18.86;100.00;100695.47;5022227;28;20130;-82
2022/08/05 04:54:40;;;;;;;29.80;24.70;;;;;;;18.74;100.00;100697.13;5022427;28;20050;-81
2022/08/05 04:57:06;;;;;;;29.33;23.92;;;;;;;18.88;100.00;100684.66;5022542;28;20129;-80
2022/08/05 04:59:34;;;;;;;33.25;24.83;;;;;;;18.86;100.00;100668.16;5017934;28;20073;-81
2022/08/05 05:02:01;;;;;;;34.88;27.15;;;;;;;18.78;100.00;100658.59;5014366;28;20542;-80
2022/08/05 05:04:28;;;;;;;39.88;29.95;;;;;;;18.88;100.00;100663.44;5022003;28;20128;-80
2022/08/05 05:06:54;;;;;;;41.67;29.45;;;;;;;18.89;100.00;100665.91;5013145;28;20089;-78
2022/08/05 05:09:21;;;;;;;43.33;28.30;;;;;;;18.99;100.00;100664.63;5070249;22;20064;-80
2022/08/05 05:11:48;;;;;;;36.63;27.23;;;;;;;19.05;100.00;100677.03;5081182;28;20439;-79
2022/08/05 05:14:14;;;;;;;39.47;29.10;;;;;;;19.06;100.00;100676.00;5076226;28;20526;-80
2022/08/05 05:16:42;;;;;;;44.05;29.63;;;;;;;18.95;100.00;100663.41;5080092;28;20044;-81
2022/08/05 05:19:09;;;;;;;45.35;29.58;;;;;;;18.97;100.00;100656.06;5085015;28;20067;-79
2022/08/05 05:21:35;;;;;;;41.75;29.00;;;;;;;19.00;100.00;100668.91;5083472;28;20116;-79
2022/08/05 05:24:02;;;;;;;39.95;29.25;;;;;;;19.02;100.00;100680.09;5062469;28;20045;-79
2022/08/05 05:26:29;;;;;;;41.95;29.52;;;;;;;19.11;100.00;100679.66;5063224;28;20075;-79
2022/08/05 05:28:55;;;;;;;36.53;28.17;;;;;;;19.07;100.00;100685.59;5062467;28;20500;-81
2022/08/05 05:31:22;;;;;;;42.53;28.90;;;;;;;19.12;100.00;100678.63;5062520;28;20045;-80
2022/08/05 05:33:50;;;;;;;38.63;28.15;;;;;;;19.17;100.00;100683.31;5062814;28;20080;-80
2022/08/05 05:36:17;;;;;;;43.42;27.63;;;;;;;19.18;100.00;100690.25;5060761;28;20080;-80
2022/08/05 05:38:43;;;;;;;35.15;27.05;;;;;;;19.22;100.00;100681.66;5077467;28;20040;-80
2022/08/05 05:41:10;;;;;;;41.97;29.02;;;;;;;19.24;100.00;100689.41;5082583;28;20049;-81
2022/08/05 05:43:37;;;;;;;37.55;27.65;;;;;;;19.28;100.00;100695.94;5083600;28;20084;-81
2022/08/05 05:46:03;;;;;;;43.08;29.70;;;;;;;19.32;100.00;100691.81;5064585;28;20057;-81
2022/08/05 05:48:30;;;;;;;39.85;29.25;;;;;;;19.13;100.00;100698.03;5052737;28;20061;-81
2022/08/05 05:50:58;;;;;;;38.10;27.50;;;;;;;19.36;100.00;100711.59;5061879;28;20049;-81
2022/08/05 05:53:25;;;;;;;43.80;30.77;;;;;;;19.36;100.00;100706.28;5063870;28;20053;-81
2022/08/05 05:55:51;;;;;;;43.83;31.15;;;;;;;19.36;100.00;100706.28;5060764;28;20084;-81
2022/08/05 05:58:18;;;;;;;48.03;32.45;;;;;;;19.39;100.00;100705.84;5060018;28;20199;-80
2022/08/05 06:00:45;;;;;;;48.05;32.33;;;;;;;19.37;100.00;100707.94;5058658;28;20072;-81
2022/08/05 06:03:11;;;;;;;51.65;34.20;;;;;;;19.44;100.00;100706.03;5060428;28;20060;-83
2022/08/05 06:05:38;;;;;;;46.53;32.97;;;;;;;19.44;100.00;100718.47;5059930;28;20531;-82
2022/08/05 06:08:06;;;;;;;43.28;31.00;;;;;;;19.59;100.00;100716.41;5060896;28;20110;-82
2022/08/05 06:10:33;;;;;;;43.70;33.10;;;;;;;19.68;100.00;100714.31;5060538;28;20427;-83
2022/08/05 06:13:00;;;;;;;42.60;31.20;;;;;;;19.77;100.00;100713.84;5060717;28;20055;-81
2022/08/05 06:15:27;;;;;;;41.00;30.55;;;;;;;19.84;100.00;100704.00;5059495;28;20112;-83
2022/08/05 06:17:53;;;;;;;38.42;30.50;;;;;;;19.89;100.00;100705.97;5059415;28;20076;-82
2022/08/05 06:20:20;;;;;;;39.00;30.33;;;;;;;19.79;100.00;100716.28;5059645;28;20077;-81
2022/08/05 06:22:47;;;;;;;38.05;29.52;;;;;;;19.84;100.00;100725.25;5072299;28;20068;-81
2022/08/05 06:25:15;;;;;;;43.60;32.97;;;;;;;19.73;100.00;100730.41;5072143;28;20691;-82
2022/08/05 06:27:41;;;;;;;38.83;30.63;;;;;;;19.56;100.00;100738.06;5057689;28;20570;-82
2022/08/05 06:30:14;;;;;;;37.85;30.20;;;;;;;19.53;100.00;100743.78;5058919;28;20535;-81
2022/08/05 06:32:40;;;;;;;;;;;;;;;19.38;100.00;100744.00;5059624;28;20423;-82
2022/08/05 06:35:08;;;;;;;42.15;30.77;;;;;;;19.39;100.00;100732.38;5059239;28;19920;-81
2022/08/05 06:37:35;;;;;;;39.33;31.67;;;;;;;19.17;100.00;100734.53;5059366;28;20053;-82
2022/08/05 06:40:01;;;;;;;50.80;35.60;;;;;;;19.19;100.00;100736.97;5060422;28;20091;-81
2022/08/05 06:42:29;;;;;;;50.92;34.65;;;;;;;19.33;100.00;100733.25;5058904;28;20106;-81
2022/08/05 06:44:56;;;;;;;47.80;35.75;;;;;;;19.32;100.00;100744.88;5058652;28;20080;-81
2022/08/05 06:47:22;;;;;;;52.97;38.00;;;;;;;19.37;100.00;100754.88;5063568;28;20103;-81
2022/08/05 06:49:49;;;;;;;59.78;40.17;;;;;;;19.19;100.00;100736.97;5079187;28;20132;-81
2022/08/05 06:52:16;;;;;;;58.53;41.15;;;;;;;19.20;100.00;100741.25;5079551;28;20507;-80
2022/08/05 06:54:42;;;;;;;64.88;42.42;;;;;;;19.17;100.00;100744.31;5079075;28;20048;-79
2022/08/05 06:57:10;;;;;;;59.00;40.50;;;;;;;19.09;100.00;100739.25;5060632;28;20052;-80
2022/08/05 06:59:38;;;;;;;57.50;40.90;;;;;;;19.09;100.00;100741.91;5059086;28;20122;-82
2022/08/05 07:02:05;;;;;;;59.08;40.38;;;;;;;19.16;100.00;100755.97;5059011;28;20048;-81
2022/08/05 07:04:32;;;;;;;52.20;39.10;;;;;;;19.14;100.00;100763.31;5056412;28;20124;-80
2022/08/05 07:06:58;;;;;;;53.42;38.58;;;;;;;19.14;100.00;100763.31;5054559;28;20585;-79
2022/08/05 07:09:25;;;;;;;52.03;36.90;;;;;;;19.11;100.00;100761.06;5054056;28;20106;-80
2022/08/05 07:11:54;;;;;;;55.97;39.60;;;;;;;19.07;100.00;100781.06;5054826;28;20045;-80
2022/08/05 07:17:07;;;;;;;71.53;44.53;;;;;;;19.03;100.00;100777.19;5058552;28;20116;-80
2022/08/05 07:19:35;;;;;;;66.60;44.13;;;;;;;19.04;100.00;100776.19;5041125;28;20073;-80
2022/08/05 07:22:01;;;;;;;66.03;43.72;;;;;;;19.08;100.00;100795.97;5053947;28;20124;-80
2022/08/05 07:24:28;;;;;;;71.05;46.33;;;;;;;19.05;100.00;100793.72;5049228;28;20076;-81
2022/08/05 07:26:55;;;;;;;76.05;47.53;;;;;;;19.04;100.00;100800.88;5052170;28;20104;-81
2022/08/05 07:29:21;;;;;;;71.28;49.00;;;;;;;19.02;100.00;100804.75;5049045;28;20048;-79
2022/08/05 07:31:48;;;;;;;72.57;47.22;;;;;;;18.95;100.00;100818.00;5042996;28;20399;-80
2022/08/05 07:34:16;;;;;;;59.80;39.25;;;;;;;18.85;100.00;100815.81;5043826;28;20511;-80
2022/08/05 07:36:43;;;;;;;55.95;35.28;;;;;;;18.77;100.00;100815.19;5054700;28;20045;-81
2022/08/05 07:39:10;;;;;;;45.90;31.38;;;;;;;18.56;100.00;100826.78;5056227;28;21615;-80
2022/08/05 07:41:36;;;;;;;46.15;34.00;;;;;;;18.60;100.00;100822.72;5059291;28;20076;-82
2022/08/05 07:44:05;;;;;;;44.38;33.05;;;;;;;18.56;100.00;100824.13;5052280;28;20132;-83
2022/08/05 07:46:32;;;;;;;54.28;37.75;;;;;;;18.38;100.00;100839.81;5052974;28;20068;-83
2022/08/05 07:49:01;;;;;;;59.20;40.40;;;;;;;18.29;100.00;100835.72;5056444;28;20464;-81
2022/08/05 07:51:32;;;;;;;73.68;44.47;;;;;;;18.37;100.00;100840.84;5052313;28;20048;-83
2022/08/05 07:53:58;;;;;;;80.40;50.35;;;;;;;18.31;100.00;100844.28;5065911;28;20166;-83
2022/08/05 07:56:25;;;;;;;93.78;53.60;;;;;;;18.28;100.00;100850.00;5058226;28;20072;-80
2022/08/05 07:58:51;;;;;;;96.72;56.42;;;;;;;18.24;100.00;100854.88;5058302;28;20115;-81
2022/08/05 08:01:19;;;;;;;99.13;56.47;;;;;;;18.19;100.00;100858.13;5064847;28;20164;-81
2022/08/05 08:03:46;;;;;;;90.72;54.22;;;;;;;18.28;100.00;100856.09;5064628;28;20462;-83
2022/08/05 08:06:12;;;;;;;82.68;48.53;;;;;;;18.25;100.00;100861.81;5068470;28;20067;-84
2022/08/05 08:08:40;;;;;;;81.82;49.72;;;;;;;18.25;100.00;100867.09;5075192;28;20071;-82
2022/08/05 08:11:07;;;;;;;76.78;48.97;;;;;;;18.18;100.00;100880.31;5062517;28;20109;-84
2022/08/05 08:13:34;;;;;;;76.22;49.85;;;;;;;18.18;100.00;100882.16;5059536;28;20045;-83
2022/08/05 08:16:00;;;;;;;73.82;49.70;;;;;;;18.17;100.00;100876.03;5054793;28;20457;-84
2022/08/05 08:18:27;;;;;;;71.93;47.90;;;;;;;18.23;100.00;100880.53;5064344;28;20060;-82
2022/08/05 08:20:53;;;;;;;73.30;48.33;;;;;;;18.14;100.00;100881.72;5048234;28;20081;-82
2022/08/05 08:23:20;;;;;;;65.63;45.97;;;;;;;18.19;100.00;100894.38;5056966;28;20055;-80
2022/08/05 08:25:48;;;;;;;64.20;43.20;;;;;;;18.14;100.00;100884.38;5051184;28;20076;-82
2022/08/05 08:28:15;;;;;;;60.55;44.38;;;;;;;18.18;100.00;100888.28;5049177;28;20100;-82
2022/08/05 08:30:41;;;;;;;63.95;42.88;;;;;;;18.23;100.00;100895.63;5049557;28;20531;-83
2022/08/05 08:33:09;;;;;;;58.03;38.08;;;;;;;18.32;100.00;100894.44;5049476;28;20087;-82
2022/08/05 08:35:36;;;;;;;48.50;35.22;;;;;;;18.21;100.00;100897.66;5050087;28;20108;-83
2022/08/05 08:38:02;;;;;;;51.70;35.20;;;;;;;18.37;100.00;100909.72;5052887;28;20087;-82
2022/08/05 08:40:32;;;;;;;47.80;33.97;;;;;;;18.21;100.00;100913.53;5054464;28;20073;-82
2022/08/05 08:43:00;;;;;;;46.33;31.83;;;;;;;18.05;100.00;100920.00;5049996;28;20075;-83
2022/08/05 08:45:27;;;;;;;41.75;29.20;;;;;;;17.95;100.00;100916.94;5048779;28;20531;-81
2022/08/05 08:47:55;;;;;;;41.70;30.67;;;;;;;18.06;100.00;100924.28;5053500;28;20255;-81
2022/08/05 08:50:22;;;;;;;39.60;30.75;;;;;;;17.83;100.00;100921.94;5052601;28;20095;-81
2022/08/05 08:52:52;;;;;;;36.58;29.90;;;;;;;17.80;100.00;100924.16;5070636;28;20621;-82
2022/08/05 08:55:20;;;;;;;39.92;30.38;;;;;;;17.81;100.00;100925.81;5059127;28;20068;-83
2022/08/05 08:57:47;;;;;;;38.30;28.20;;;;;;;17.72;100.00;100926.97;5069765;28;20442;-83
2022/08/05 09:00:16;;;;;;;37.60;28.15;;;;;;;17.67;100.00;100934.69;5059147;28;20079;-83
2022/08/05 09:02:44;;;;;;;37.72;27.73;;;;;;;17.67;100.00;100947.91;5046468;28;20053;-83
2022/08/05 09:05:11;;;;;;;32.05;25.83;;;;;;;17.75;100.00;100955.69;5043588;28;20057;-80
2022/08/05 09:07:38;;;;;;;34.50;25.83;;;;;;;17.78;100.00;100958.78;5045230;28;20541;-81
2022/08/05 09:10:06;;;;;;;34.47;24.95;;;;;;;17.70;100.00;100958.09;5057748;28;20127;-81
2022/08/05 09:12:32;;;;;;;32.00;23.95;;;;;;;17.67;100.00;100964.59;5066496;28;20053;-80
2022/08/05 09:15:01;;;;;;;26.70;21.10;;;;;;;17.45;100.00;100960.38;5055150;28;20049;-82
2022/08/05 09:17:30;;;;;;;23.55;20.45;;;;;;;17.42;100.00;100958.94;5053414;28;20077;-81
2022/08/05 09:19:57;;;;;;;27.02;20.35;;;;;;;17.51;100.00;100965.69;5071939;28;20073;-80
2022/08/05 09:22:23;;;;;;;29.25;19.17;;;;;;;17.44;100.00;100966.69;5063990;28;20070;-81
2022/08/05 09:24:58;;;;;;;24.35;18.48;;;;;;;17.58;100.00;100961.25;5067795;28;20049;-81
2022/08/05 09:27:33;;;;;;;26.35;17.52;;;;;;;17.75;100.00;100955.69;5045882;28;20046;-80
2022/08/05 09:30:00;;;;;;;25.45;17.10;;;;;;;17.77;100.00;100964.25;5061450;28;20045;-82
2022/08/05 09:32:36;;;;;;;20.58;16.38;;;;;;;18.06;100.00;100969.28;5062112;28;20052;-82
2022/08/05 09:35:11;;;;;;;25.63;15.55;;;;;;;17.90;100.00;100972.28;5075194;28;20062;-82
2022/08/05 09:37:48;;;;;;;23.23;15.68;;;;;;;17.88;100.00;100964.53;5045527;28;20060;-81
2022/08/05 09:40:29;;;;;;;19.05;15.65;;;;;;;18.13;100.00;100972.78;5061981;28;20065;-81
2022/08/05 09:42:56;;;;;;;25.85;15.75;;;;;;;18.39;100.00;100971.28;5071338;28;20072;-80
2022/08/05 09:45:35;;;;;;;17.23;14.50;;;;;;;18.45;100.00;100978.41;5061361;28;20569;-80
2022/08/05 09:48:18;;;;;;;23.10;15.73;;;;;;;18.32;100.00;100979.19;5054670;28;20080;-82
2022/08/05 09:50:49;;;;;;;21.42;14.75;;;;;;;18.02;100.00;100978.66;5058271;28;20132;-81
2022/08/05 09:53:16;;;;;;;21.95;13.20;;;;;;;18.13;100.00;100980.75;5060401;28;20120;-81
2022/08/05 09:55:43;;;;;;;17.35;12.82;;;;;;;18.09;100.00;100976.84;5076128;28;20049;-81
2022/08/05 09:58:11;;;;;;;13.73;11.95;;;;;;;18.14;100.00;100979.72;5059179;28;20320;-80
2022/08/05 10:00:38;;;;;;;18.55;12.23;;;;;;;18.24;100.00;100988.13;5060633;28;20096;-81
2022/08/05 10:03:11;;;;;;;15.82;11.30;;;;;;;18.39;100.00;100995.13;5060176;28;20132;-81
2022/08/05 10:05:37;;;;;;;19.40;11.02;;;;;;;18.40;99.39;100996.75;5047063;28;20419;-80
2022/08/05 10:08:06;;;;;;;14.73;11.27;;;;;;;18.65;99.53;101005.81;5068356;28;20080;-83
2022/08/05 10:10:37;;;;;;;14.10;10.32;;;;;;;18.65;98.49;101024.38;5059999;28;20132;-81
2022/08/05 10:13:06;;;;;;;12.67;10.60;;;;;;;18.93;99.75;101029.53;5059968;28;20059;-81
2022/08/05 10:15:35;;;;;;;14.57;9.82;;;;;;;18.65;96.67;101036.81;5042789;28;20084;-82
2022/08/05 10:18:12;;;;;;;18.15;8.80;;;;;;;18.39;96.08;101032.22;5047470;28;20061;-79
2022/08/05 10:20:42;;;;;;;12.45;8.77;;;;;;;18.57;97.12;101024.53;5050645;28;20053;-82
2022/08/05 10:23:11;;;;;;;13.55;8.93;;;;;;;18.78;96.42;101026.25;5061275;28;20044;-81
2022/08/05 10:25:38;;;;;;;14.85;8.80;;;;;;;18.97;95.38;101037.91;5067643;28;20049;-81
2022/08/05 10:28:05;;;;;;;12.88;9.50;;;;;;;19.35;94.82;101048.78;5060383;28;20430;-82
2022/08/05 10:30:32;;;;;;;12.65;9.30;;;;;;;19.67;92.60;101044.53;5061201;28;20683;-80
2022/08/05 10:33:00;;;;;;;15.95;9.43;;;;;;;20.16;92.87;101052.00;5058822;28;20048;-81
2022/08/05 10:35:28;;;;;;;15.90;8.98;;;;;;;20.25;90.74;101040.13;5062058;28;20052;-83
2022/08/05 10:37:55;;;;;;;12.70;8.93;;;;;;;20.84;87.77;101061.13;5060255;28;20068;-82
2022/08/05 10:40:29;;;;;;;15.52;8.88;;;;;;;21.24;85.01;101060.94;5060798;28;20045;-80
2022/08/05 10:43:01;;;;;;;9.07;8.00;;;;;;;20.78;85.36;101051.38;5040573;28;20049;-82
2022/08/05 10:45:29;;;;;;;10.48;8.55;;;;;;;20.99;84.53;101052.06;5046484;28;20205;-82
2022/08/05 10:47:56;;;;;;;13.48;8.02;;;;;;;21.72;83.52;101069.16;5047144;28;20360;-80
2022/08/05 10:50:22;;;;;;;10.35;7.43;;;;;;;21.90;83.38;101076.34;5045922;28;20064;-81
2022/08/05 10:52:56;;;;;;;11.85;7.20;;;;;;;21.05;82.30;101073.31;5045631;28;20041;-80
2022/08/05 10:55:24;;;;;;;11.85;6.68;;;;;;;20.88;81.04;101083.63;5044290;28;20054;-80
2022/08/05 10:58:09;;;;;;;11.90;6.15;;;;;;;21.27;80.84;101096.97;5042145;28;20053;-81
2022/08/05 11:00:36;;;;;;;10.98;6.38;;;;;;;21.79;79.33;101103.69;5039097;28;20499;-81
2022/08/05 11:03:10;;;;;;;10.65;7.18;;;;;;;21.96;78.24;101104.78;5056633;28;20515;-81
2022/08/05 11:05:38;;;;;;;12.23;7.50;;;;;;;21.94;77.87;101106.03;5055583;28;20076;-80
2022/08/05 11:10:35;;;;;;;12.75;7.80;;;;;;;22.11;77.69;101112.47;5027967;28;20471;-77
2022/08/05 11:13:05;;;;;;;12.77;7.88;;;;;;;22.12;77.08;101117.59;5030524;28;20412;-78
2022/08/05 11:15:34;;;;;;;13.07;7.93;;;;;;;22.28;76.43;101110.84;5030589;28;20045;-78
2022/08/05 11:18:07;;;;;;;9.80;8.52;;;;;;;21.83;76.59;101110.22;5030685;28;20420;-77
2022/08/05 11:20:39;;;;;;;11.27;7.82;;;;;;;22.35;74.02;101108.09;5031064;28;20073;-78
2022/08/05 11:23:26;;;;;;;14.60;9.98;;;;;;;22.63;74.28;101107.59;5031856;28;20483;-78